Ashley, Ohio
Current Conditions -  °F | °C
As of 3:39 PM on Wednesday 26 Nov 2014 (Local Time) from KDLZ Reporting Station
Overcast Overcast  
Wind Chill: 30°   Ceiling: 3200
Heat Index: 34°   Visibility: 10mi
Dew Point: 27°   Wind: 5mph
Humidity: 75%   Direction: 320°NW
Pressure: 30.03"   Gusts: NA
Location:  40.41°N, 82.96°W
Report Text: KDLZ 262039Z AUTO 32004KT 10SM OVC032 01/M03 A3003 RMK AO2
Loading
Personal Weather Stations






























Interactive Weather Map New forecast layout! Learn more

10-Day Weather Forecast

Advertisements
Track Severe Weather on mobile